sensor_id;sensor_type;location;lat;lon;timestamp;temperature;humidity
20284;DHT22;10301;50.832;4.080;2023-04-01T00:01:38;10.20;99.90
20284;DHT22;10301;50.832;4.080;2023-04-01T00:04:04;10.30;99.90
20284;DHT22;10301;50.832;4.080;2023-04-01T00:06:30;10.30;99.90
20284;DHT22;10301;50.832;4.080;2023-04-01T00:08:56;10.30;99.90
20284;DHT22;10301;50.832;4.080;2023-04-01T00:11:22;10.40;99.90
20284;DHT22;10301;50.832;4.080;2023-04-01T00:13:48;10.40;99.90
20284;DHT22;10301;50.832;4.080;2023-04-01T00:16:14;10.30;99.90
20284;DHT22;10301;50.832;4.080;2023-04-01T00:18:40;10.30;99.90
20284;DHT22;10301;50.832;4.080;2023-04-01T00:21:07;10.30;99.90
20284;DHT22;10301;50.832;4.080;2023-04-01T00:23:32;10.30;99.90
20284;DHT22;10301;50.832;4.080;2023-04-01T00:26:02;10.30;99.90
20284;DHT22;10301;50.832;4.080;2023-04-01T00:28:28;10.20;99.90
20284;DHT22;10301;50.832;4.080;2023-04-01T00:30:54;10.40;99.90
20284;DHT22;10301;50.832;4.080;2023-04-01T00:33:20;10.40;99.90
20284;DHT22;10301;50.832;4.080;2023-04-01T00:35:46;10.40;99.90
20284;DHT22;10301;50.832;4.080;2023-04-01T00:38:13;10.30;99.90
20284;DHT22;10301;50.832;4.080;2023-04-01T00:40:44;10.30;99.90
20284;DHT22;10301;50.832;4.080;2023-04-01T00:43:19;10.10;99.90
20284;DHT22;10301;50.832;4.080;2023-04-01T00:45:49;10.20;99.90
20284;DHT22;10301;50.832;4.080;2023-04-01T00:48:19;10.20;99.90
20284;DHT22;10301;50.832;4.080;2023-04-01T00:51:06;10.20;99.90
20284;DHT22;10301;50.832;4.080;2023-04-01T00:53:35;10.30;99.90
20284;DHT22;10301;50.832;4.080;2023-04-01T00:56:10;10.40;99.90
20284;DHT22;10301;50.832;4.080;2023-04-01T00:58:39;10.40;99.90
20284;DHT22;10301;50.832;4.080;2023-04-01T01:01:06;10.40;99.90
20284;DHT22;10301;50.832;4.080;2023-04-01T01:03:34;10.50;99.90
20284;DHT22;10301;50.832;4.080;2023-04-01T01:06:11;10.50;99.90
20284;DHT22;10301;50.832;4.080;2023-04-01T01:12:05;10.60;99.90
20284;DHT22;10301;50.832;4.080;2023-04-01T01:14:53;10.50;99.90
20284;DHT22;10301;50.832;4.080;2023-04-01T01:22:44;10.60;99.90
20284;DHT22;10301;50.832;4.080;2023-04-01T01:28:41;10.40;99.90
20284;DHT22;10301;50.832;4.080;2023-04-01T01:31:20;10.40;99.90
20284;DHT22;10301;50.832;4.080;2023-04-01T01:36:29;10.40;99.90
20284;DHT22;10301;50.832;4.080;2023-04-01T01:38:57;10.50;99.90
20284;DHT22;10301;50.832;4.080;2023-04-01T01:41:24;10.40;99.90
20284;DHT22;10301;50.832;4.080;2023-04-01T01:43:54;10.40;99.90
20284;DHT22;10301;50.832;4.080;2023-04-01T01:46:23;10.60;99.90
20284;DHT22;10301;50.832;4.080;2023-04-01T01:48:51;10.60;99.90
20284;DHT22;10301;50.832;4.080;2023-04-01T01:51:19;10.70;99.90
20284;DHT22;10301;50.832;4.080;2023-04-01T01:53:46;10.80;99.90
20284;DHT22;10301;50.832;4.080;2023-04-01T01:56:12;11.00;99.90
20284;DHT22;10301;50.832;4.080;2023-04-01T01:58:47;11.00;99.90
20284;DHT22;10301;50.832;4.080;2023-04-01T02:01:21;11.00;99.90
20284;DHT22;10301;50.832;4.080;2023-04-01T02:03:48;11.00;99.90
20284;DHT22;10301;50.832;4.080;2023-04-01T02:06:18;10.90;99.90
20284;DHT22;10301;50.832;4.080;2023-04-01T02:08:49;10.90;99.90
20284;DHT22;10301;50.832;4.080;2023-04-01T02:11:19;10.70;99.90
20284;DHT22;10301;50.832;4.080;2023-04-01T02:14:02;10.50;99.90
20284;DHT22;10301;50.832;4.080;2023-04-01T02:16:38;10.50;99.90
20284;DHT22;10301;50.832;4.080;2023-04-01T02:19:07;10.50;99.90
20284;DHT22;10301;50.832;4.080;2023-04-01T02:21:33;10.40;99.90
20284;DHT22;10301;50.832;4.080;2023-04-01T02:24:02;10.50;99.90
20284;DHT22;10301;50.832;4.080;2023-04-01T02:26:30;10.50;99.90
20284;DHT22;10301;50.832;4.080;2023-04-01T02:28:56;10.50;99.90
20284;DHT22;10301;50.832;4.080;2023-04-01T02:31:23;10.50;99.90
20284;DHT22;10301;50.832;4.080;2023-04-01T02:33:51;10.40;99.90
20284;DHT22;10301;50.832;4.080;2023-04-01T02:36:17;10.50;99.90
20284;DHT22;10301;50.832;4.080;2023-04-01T02:38:44;10.60;99.90
20284;DHT22;10301;50.832;4.080;2023-04-01T02:41:11;10.50;99.90
20284;DHT22;10301;50.832;4.080;2023-04-01T02:43:37;10.60;99.90
20284;DHT22;10301;50.832;4.080;2023-04-01T02:46:02;10.40;99.90
20284;DHT22;10301;50.832;4.080;2023-04-01T02:48:28;10.40;99.90
20284;DHT22;10301;50.832;4.080;2023-04-01T02:50:54;10.40;99.90
20284;DHT22;10301;50.832;4.080;2023-04-01T02:53:20;10.30;99.90
20284;DHT22;10301;50.832;4.080;2023-04-01T02:55:46;10.40;99.90
20284;DHT22;10301;50.832;4.080;2023-04-01T02:58:11;10.40;99.90
20284;DHT22;10301;50.832;4.080;2023-04-01T03:00:38;10.30;99.90
20284;DHT22;10301;50.832;4.080;2023-04-01T03:03:03;10.20;99.90
20284;DHT22;10301;50.832;4.080;2023-04-01T03:05:29;10.20;99.90
20284;DHT22;10301;50.832;4.080;2023-04-01T03:07:55;10.20;99.90
20284;DHT22;10301;50.832;4.080;2023-04-01T03:10:21;10.10;99.90
20284;DHT22;10301;50.832;4.080;2023-04-01T03:12:47;10.00;99.90
20284;DHT22;10301;50.832;4.080;2023-04-01T03:15:13;10.00;99.90
20284;DHT22;10301;50.832;4.080;2023-04-01T03:17:41;10.20;99.90
20284;DHT22;10301;50.832;4.080;2023-04-01T03:20:07;10.30;99.90
20284;DHT22;10301;50.832;4.080;2023-04-01T03:22:34;10.30;99.90
20284;DHT22;10301;50.832;4.080;2023-04-01T03:25:01;10.30;99.90
20284;DHT22;10301;50.832;4.080;2023-04-01T03:27:27;10.30;99.90
20284;DHT22;10301;50.832;4.080;2023-04-01T03:29:52;10.30;99.90
20284;DHT22;10301;50.832;4.080;2023-04-01T03:32:18;10.30;99.90
20284;DHT22;10301;50.832;4.080;2023-04-01T03:34:44;10.30;99.90
20284;DHT22;10301;50.832;4.080;2023-04-01T03:37:09;10.30;99.90
20284;DHT22;10301;50.832;4.080;2023-04-01T03:39:35;10.30;99.90
20284;DHT22;10301;50.832;4.080;2023-04-01T03:42:01;10.30;99.90
20284;DHT22;10301;50.832;4.080;2023-04-01T03:44:31;10.40;99.90
20284;DHT22;10301;50.832;4.080;2023-04-01T03:46:57;10.40;99.90
20284;DHT22;10301;50.832;4.080;2023-04-01T03:49:23;10.40;99.90
20284;DHT22;10301;50.832;4.080;2023-04-01T03:51:48;10.30;99.90
20284;DHT22;10301;50.832;4.080;2023-04-01T03:54:14;10.30;99.90
20284;DHT22;10301;50.832;4.080;2023-04-01T03:56:40;10.20;99.90
20284;DHT22;10301;50.832;4.080;2023-04-01T03:59:07;10.20;99.90
20284;DHT22;10301;50.832;4.080;2023-04-01T04:01:33;10.30;99.90
20284;DHT22;10301;50.832;4.080;2023-04-01T04:03:59;10.30;99.90
20284;DHT22;10301;50.832;4.080;2023-04-01T04:06:26;10.20;99.90
20284;DHT22;10301;50.832;4.080;2023-04-01T04:08:52;10.30;99.90
20284;DHT22;10301;50.832;4.080;2023-04-01T04:11:18;10.30;99.90
20284;DHT22;10301;50.832;4.080;2023-04-01T04:13:44;10.30;99.90
20284;DHT22;10301;50.832;4.080;2023-04-01T04:16:10;10.40;99.90
20284;DHT22;10301;50.832;4.080;2023-04-01T04:18:37;10.30;99.90
20284;DHT22;10301;50.832;4.080;2023-04-01T04:21:03;10.30;99.90
20284;DHT22;10301;50.832;4.080;2023-04-01T04:23:29;10.20;99.90
20284;DHT22;10301;50.832;4.080;2023-04-01T04:26:07;10.20;99.90
20284;DHT22;10301;50.832;4.080;2023-04-01T04:28:33;10.20;99.90
20284;DHT22;10301;50.832;4.080;2023-04-01T04:30:59;10.00;99.90
20284;DHT22;10301;50.832;4.080;2023-04-01T04:33:26;10.10;99.90
20284;DHT22;10301;50.832;4.080;2023-04-01T04:35:55;10.20;99.90
20284;DHT22;10301;50.832;4.080;2023-04-01T04:38:21;10.20;99.90
20284;DHT22;10301;50.832;4.080;2023-04-01T04:40:47;10.30;99.90
20284;DHT22;10301;50.832;4.080;2023-04-01T04:43:14;10.30;99.90
20284;DHT22;10301;50.832;4.080;2023-04-01T04:45:41;10.30;99.90
20284;DHT22;10301;50.832;4.080;2023-04-01T04:48:08;10.30;99.90
20284;DHT22;10301;50.832;4.080;2023-04-01T04:50:34;10.30;99.90
20284;DHT22;10301;50.832;4.080;2023-04-01T04:53:00;10.40;99.90
20284;DHT22;10301;50.832;4.080;2023-04-01T04:55:26;10.30;99.90
20284;DHT22;10301;50.832;4.080;2023-04-01T04:57:52;10.20;99.90
20284;DHT22;10301;50.832;4.080;2023-04-01T05:00:18;10.20;99.90
20284;DHT22;10301;50.832;4.080;2023-04-01T05:02:43;10.30;99.90
20284;DHT22;10301;50.832;4.080;2023-04-01T05:05:09;10.40;99.90
20284;DHT22;10301;50.832;4.080;2023-04-01T05:07:36;10.30;99.90
20284;DHT22;10301;50.832;4.080;2023-04-01T05:10:02;10.20;99.90
20284;DHT22;10301;50.832;4.080;2023-04-01T05:12:27;10.30;99.90
20284;DHT22;10301;50.832;4.080;2023-04-01T05:14:53;10.30;99.90
20284;DHT22;10301;50.832;4.080;2023-04-01T05:17:19;10.30;99.90
20284;DHT22;10301;50.832;4.080;2023-04-01T05:19:44;10.30;99.90
20284;DHT22;10301;50.832;4.080;2023-04-01T05:22:10;10.40;99.90
20284;DHT22;10301;50.832;4.080;2023-04-01T05:24:36;10.30;99.90
20284;DHT22;10301;50.832;4.080;2023-04-01T05:27:01;10.20;99.90
20284;DHT22;10301;50.832;4.080;2023-04-01T05:29:27;10.20;99.90
20284;DHT22;10301;50.832;4.080;2023-04-01T05:31:53;10.20;99.90
20284;DHT22;10301;50.832;4.080;2023-04-01T05:34:18;10.20;99.90
20284;DHT22;10301;50.832;4.080;2023-04-01T05:36:44;10.10;99.90
20284;DHT22;10301;50.832;4.080;2023-04-01T05:39:10;10.20;99.90
20284;DHT22;10301;50.832;4.080;2023-04-01T05:41:36;10.30;99.90
20284;DHT22;10301;50.832;4.080;2023-04-01T05:44:02;10.30;99.90
20284;DHT22;10301;50.832;4.080;2023-04-01T05:46:29;10.20;99.90
20284;DHT22;10301;50.832;4.080;2023-04-01T05:48:54;10.30;99.90
20284;DHT22;10301;50.832;4.080;2023-04-01T05:51:20;10.30;99.90
20284;DHT22;10301;50.832;4.080;2023-04-01T05:53:46;10.30;99.90
20284;DHT22;10301;50.832;4.080;2023-04-01T05:56:12;10.40;99.90
20284;DHT22;10301;50.832;4.080;2023-04-01T05:58:38;10.30;99.90
20284;DHT22;10301;50.832;4.080;2023-04-01T06:01:10;10.30;99.90
20284;DHT22;10301;50.832;4.080;2023-04-01T06:03:35;10.40;99.90
20284;DHT22;10301;50.832;4.080;2023-04-01T06:06:02;10.30;99.90
20284;DHT22;10301;50.832;4.080;2023-04-01T06:08:30;10.20;99.90
20284;DHT22;10301;50.832;4.080;2023-04-01T06:11:37;10.30;99.90
20284;DHT22;10301;50.832;4.080;2023-04-01T06:22:13;10.30;99.90
20284;DHT22;10301;50.832;4.080;2023-04-01T06:30:37;10.20;99.90
20284;DHT22;10301;50.832;4.080;2023-04-01T06:33:31;10.30;99.90
20284;DHT22;10301;50.832;4.080;2023-04-01T06:41:35;10.30;99.90
20284;DHT22;10301;50.832;4.080;2023-04-01T06:44:16;10.30;99.90
20284;DHT22;10301;50.832;4.080;2023-04-01T06:46:57;10.30;99.90
20284;DHT22;10301;50.832;4.080;2023-04-01T06:52:34;10.50;99.90
20284;DHT22;10301;50.832;4.080;2023-04-01T06:55:24;10.50;99.90
20284;DHT22;10301;50.832;4.080;2023-04-01T06:57:55;10.40;99.90
20284;DHT22;10301;50.832;4.080;2023-04-01T07:00:35;10.50;99.90
20284;DHT22;10301;50.832;4.080;2023-04-01T07:05:33;10.50;99.90
20284;DHT22;10301;50.832;4.080;2023-04-01T07:08:03;10.50;99.90
20284;DHT22;10301;50.832;4.080;2023-04-01T07:13:23;10.40;99.90
20284;DHT22;10301;50.832;4.080;2023-04-01T07:19:05;10.40;99.90
20284;DHT22;10301;50.832;4.080;2023-04-01T07:21:33;10.50;99.90
20284;DHT22;10301;50.832;4.080;2023-04-01T07:24:05;10.50;99.90
20284;DHT22;10301;50.832;4.080;2023-04-01T07:26:32;10.60;99.90
20284;DHT22;10301;50.832;4.080;2023-04-01T07:28:58;10.60;99.90
20284;DHT22;10301;50.832;4.080;2023-04-01T07:31:33;10.60;99.90
20284;DHT22;10301;50.832;4.080;2023-04-01T07:34:09;10.60;99.90
20284;DHT22;10301;50.832;4.080;2023-04-01T07:36:48;10.60;99.90
20284;DHT22;10301;50.832;4.080;2023-04-01T07:41:52;10.60;99.90
20284;DHT22;10301;50.832;4.080;2023-04-01T07:47:54;10.60;99.90
20284;DHT22;10301;50.832;4.080;2023-04-01T07:50:26;10.60;99.90
20284;DHT22;10301;50.832;4.080;2023-04-01T07:53:14;10.60;99.90
20284;DHT22;10301;50.832;4.080;2023-04-01T07:56:06;10.70;99.90
20284;DHT22;10301;50.832;4.080;2023-04-01T08:02:06;10.60;99.90
20284;DHT22;10301;50.832;4.080;2023-04-01T08:07:45;10.70;99.90
20284;DHT22;10301;50.832;4.080;2023-04-01T08:10:23;10.70;99.90
20284;DHT22;10301;50.832;4.080;2023-04-01T08:21:37;10.90;99.90
20284;DHT22;10301;50.832;4.080;2023-04-01T08:24:29;10.90;99.90
20284;DHT22;10301;50.832;4.080;2023-04-01T08:27:01;11.00;99.90
20284;DHT22;10301;50.832;4.080;2023-04-01T08:29:34;11.00;99.90
20284;DHT22;10301;50.832;4.080;2023-04-01T08:32:18;10.90;99.90
20284;DHT22;10301;50.832;4.080;2023-04-01T08:34:49;10.90;99.90
20284;DHT22;10301;50.832;4.080;2023-04-01T08:37:30;11.00;99.90
20284;DHT22;10301;50.832;4.080;2023-04-01T08:54:34;10.80;99.90
20284;DHT22;10301;50.832;4.080;2023-04-01T09:07:54;11.20;99.90
20284;DHT22;10301;50.832;4.080;2023-04-01T09:18:34;10.90;99.90
20284;DHT22;10301;50.832;4.080;2023-04-01T09:21:11;10.90;99.90
20284;DHT22;10301;50.832;4.080;2023-04-01T10:16:27;12.00;91.80
20284;DHT22;10301;50.832;4.080;2023-04-01T10:38:19;12.80;90.50
20284;DHT22;10301;50.832;4.080;2023-04-01T11:01:01;12.80;81.70
20284;DHT22;10301;50.832;4.080;2023-04-01T11:15:26;12.60;80.10
20284;DHT22;10301;50.832;4.080;2023-04-01T11:26:14;11.90;90.70
20284;DHT22;10301;50.832;4.080;2023-04-01T11:37:11;12.10;88.40
20284;DHT22;10301;50.832;4.080;2023-04-01T11:43:01;12.20;87.80
20284;DHT22;10301;50.832;4.080;2023-04-01T11:56:11;11.60;96.90
20284;DHT22;10301;50.832;4.080;2023-04-01T12:04:34;11.20;99.90
20284;DHT22;10301;50.832;4.080;2023-04-01T12:07:14;11.20;99.90
20284;DHT22;10301;50.832;4.080;2023-04-01T12:10:02;11.20;99.90
20284;DHT22;10301;50.832;4.080;2023-04-01T12:13:02;11.40;99.70
20284;DHT22;10301;50.832;4.080;2023-04-01T12:20:50;11.20;99.60
20284;DHT22;10301;50.832;4.080;2023-04-01T12:31:53;11.20;98.00
20284;DHT22;10301;50.832;4.080;2023-04-01T12:37:27;11.30;99.20
20284;DHT22;10301;50.832;4.080;2023-04-01T13:24:40;11.50;99.90
20284;DHT22;10301;50.832;4.080;2023-04-01T13:27:14;11.40;99.90
20284;DHT22;10301;50.832;4.080;2023-04-01T13:30:08;11.30;99.90
20284;DHT22;10301;50.832;4.080;2023-04-01T13:43:39;11.00;99.90
20284;DHT22;10301;50.832;4.080;2023-04-01T13:51:48;11.00;99.90
20284;DHT22;10301;50.832;4.080;2023-04-01T13:57:08;10.90;99.90
20284;DHT22;10301;50.832;4.080;2023-04-01T14:28:47;10.90;99.90
20284;DHT22;10301;50.832;4.080;2023-04-01T14:37:48;10.90;99.90
20284;DHT22;10301;50.832;4.080;2023-04-01T14:39:57;11.00;99.90
20284;DHT22;10301;50.832;4.080;2023-04-01T14:50:51;10.90;99.90
20284;DHT22;10301;50.832;4.080;2023-04-01T14:55:55;11.00;99.90
20284;DHT22;10301;50.832;4.080;2023-04-01T14:58:23;11.10;99.90
20284;DHT22;10301;50.832;4.080;2023-04-01T15:03:38;11.10;99.90
20284;DHT22;10301;50.832;4.080;2023-04-01T15:12:02;11.40;99.90
20284;DHT22;10301;50.832;4.080;2023-04-01T15:17:32;11.50;96.20
20284;DHT22;10301;50.832;4.080;2023-04-01T15:25:31;11.30;96.40
20284;DHT22;10301;50.832;4.080;2023-04-01T15:28:03;11.30;96.00
20284;DHT22;10301;50.832;4.080;2023-04-01T15:41:16;10.90;99.90
20284;DHT22;10301;50.832;4.080;2023-04-01T15:57:08;11.10;99.90
20284;DHT22;10301;50.832;4.080;2023-04-01T16:16:00;11.00;99.90
20284;DHT22;10301;50.832;4.080;2023-04-01T16:18:52;10.90;99.90
20284;DHT22;10301;50.832;4.080;2023-04-01T16:32:21;11.10;99.90
20284;DHT22;10301;50.832;4.080;2023-04-01T16:35:14;11.10;99.80
20284;DHT22;10301;50.832;4.080;2023-04-01T16:41:10;11.20;99.60
20284;DHT22;10301;50.832;4.080;2023-04-01T16:43:49;11.10;99.00
20284;DHT22;10301;50.832;4.080;2023-04-01T16:46:42;11.00;99.90
20284;DHT22;10301;50.832;4.080;2023-04-01T16:49:31;10.90;99.90
20284;DHT22;10301;50.832;4.080;2023-04-01T16:52:14;11.10;99.90
20284;DHT22;10301;50.832;4.080;2023-04-01T16:54:52;11.00;98.80
20284;DHT22;10301;50.832;4.080;2023-04-01T17:03:13;11.00;99.90
20284;DHT22;10301;50.832;4.080;2023-04-01T17:10:52;10.90;99.90
20284;DHT22;10301;50.832;4.080;2023-04-01T17:13:46;10.90;99.90
20284;DHT22;10301;50.832;4.080;2023-04-01T17:16:28;10.90;99.90
20284;DHT22;10301;50.832;4.080;2023-04-01T17:21:49;10.90;99.90
20284;DHT22;10301;50.832;4.080;2023-04-01T17:30:10;10.80;99.90
20284;DHT22;10301;50.832;4.080;2023-04-01T17:36:04;10.70;99.90
20284;DHT22;10301;50.832;4.080;2023-04-01T17:42:06;10.70;99.90
20284;DHT22;10301;50.832;4.080;2023-04-01T17:45:03;10.70;99.90
20284;DHT22;10301;50.832;4.080;2023-04-01T18:06:14;10.70;99.90
20284;DHT22;10301;50.832;4.080;2023-04-01T18:09:00;10.70;99.90
20284;DHT22;10301;50.832;4.080;2023-04-01T18:17:27;10.70;99.90
20284;DHT22;10301;50.832;4.080;2023-04-01T18:22:47;10.60;99.90
20284;DHT22;10301;50.832;4.080;2023-04-01T18:30:44;10.50;99.90
20284;DHT22;10301;50.832;4.080;2023-04-01T18:36:22;10.40;99.90
20284;DHT22;10301;50.832;4.080;2023-04-01T18:39:08;10.30;99.90
20284;DHT22;10301;50.832;4.080;2023-04-01T18:44:43;10.20;99.90
20284;DHT22;10301;50.832;4.080;2023-04-01T18:47:38;10.20;99.90
20284;DHT22;10301;50.832;4.080;2023-04-01T18:50:22;10.10;99.90
20284;DHT22;10301;50.832;4.080;2023-04-01T18:52:54;10.00;99.90
20284;DHT22;10301;50.832;4.080;2023-04-01T18:55:33;10.00;99.90
20284;DHT22;10301;50.832;4.080;2023-04-01T19:01:28;10.10;99.90
20284;DHT22;10301;50.832;4.080;2023-04-01T19:06:54;10.10;99.90
20284;DHT22;10301;50.832;4.080;2023-04-01T19:09:31;10.00;99.90
20284;DHT22;10301;50.832;4.080;2023-04-01T19:23:26;10.00;99.90
20284;DHT22;10301;50.832;4.080;2023-04-01T19:25:58;10.10;99.90
20284;DHT22;10301;50.832;4.080;2023-04-01T19:28:52;10.00;99.90
20284;DHT22;10301;50.832;4.080;2023-04-01T19:34:46;9.90;99.90
20284;DHT22;10301;50.832;4.080;2023-04-01T19:37:40;10.00;99.90
20284;DHT22;10301;50.832;4.080;2023-04-01T19:48:13;9.90;99.90
20284;DHT22;10301;50.832;4.080;2023-04-01T19:50:57;9.90;99.90
20284;DHT22;10301;50.832;4.080;2023-04-01T19:56:21;10.00;99.90
20284;DHT22;10301;50.832;4.080;2023-04-01T20:01:35;9.90;99.90
20284;DHT22;10301;50.832;4.080;2023-04-01T20:04:08;9.90;99.90
20284;DHT22;10301;50.832;4.080;2023-04-01T20:12:28;10.10;99.90
20284;DHT22;10301;50.832;4.080;2023-04-01T20:15:02;10.00;99.90
20284;DHT22;10301;50.832;4.080;2023-04-01T20:20:21;9.90;99.90
20284;DHT22;10301;50.832;4.080;2023-04-01T20:23:05;10.00;99.90
20284;DHT22;10301;50.832;4.080;2023-04-01T20:25:40;10.00;99.90
20284;DHT22;10301;50.832;4.080;2023-04-01T20:28:24;10.00;99.90
20284;DHT22;10301;50.832;4.080;2023-04-01T20:42:34;10.00;99.90
20284;DHT22;10301;50.832;4.080;2023-04-01T20:45:40;10.00;99.90
20284;DHT22;10301;50.832;4.080;2023-04-01T20:51:18;10.10;99.90
20284;DHT22;10301;50.832;4.080;2023-04-01T20:56:44;10.10;99.90
20284;DHT22;10301;50.832;4.080;2023-04-01T21:02:32;10.00;99.90
20284;DHT22;10301;50.832;4.080;2023-04-01T21:08:01;10.00;99.90
20284;DHT22;10301;50.832;4.080;2023-04-01T21:10:41;10.00;99.90
20284;DHT22;10301;50.832;4.080;2023-04-01T21:16:37;10.00;99.90
20284;DHT22;10301;50.832;4.080;2023-04-01T21:35:55;10.00;99.90
20284;DHT22;10301;50.832;4.080;2023-04-01T21:41:04;10.00;99.90
20284;DHT22;10301;50.832;4.080;2023-04-01T22:00:32;10.00;99.90
20284;DHT22;10301;50.832;4.080;2023-04-01T22:03:21;10.10;99.90
20284;DHT22;10301;50.832;4.080;2023-04-01T22:08:46;10.00;99.90
20284;DHT22;10301;50.832;4.080;2023-04-01T22:22:47;10.10;99.90
20284;DHT22;10301;50.832;4.080;2023-04-01T22:25:19;10.20;99.90
20284;DHT22;10301;50.832;4.080;2023-04-01T22:27:58;10.30;99.90
20284;DHT22;10301;50.832;4.080;2023-04-01T22:32:59;10.10;99.90
20284;DHT22;10301;50.832;4.080;2023-04-01T22:43:34;10.10;99.90
20284;DHT22;10301;50.832;4.080;2023-04-01T22:48:54;10.20;99.90
20284;DHT22;10301;50.832;4.080;2023-04-01T22:51:40;9.80;99.90
20284;DHT22;10301;50.832;4.080;2023-04-01T22:57:18;9.90;99.90
20284;DHT22;10301;50.832;4.080;2023-04-01T22:59:46;9.60;99.90
20284;DHT22;10301;50.832;4.080;2023-04-01T23:02:24;9.70;99.90
20284;DHT22;10301;50.832;4.080;2023-04-01T23:04:57;9.80;99.90
20284;DHT22;10301;50.832;4.080;2023-04-01T23:13:03;10.20;99.90
20284;DHT22;10301;50.832;4.080;2023-04-01T23:15:32;9.90;99.90
20284;DHT22;10301;50.832;4.080;2023-04-01T23:18:19;9.90;99.90
20284;DHT22;10301;50.832;4.080;2023-04-01T23:20:54;9.80;99.90
20284;DHT22;10301;50.832;4.080;2023-04-01T23:24:03;9.80;99.90
20284;DHT22;10301;50.832;4.080;2023-04-01T23:26:32;9.90;99.90
20284;DHT22;10301;50.832;4.080;2023-04-01T23:28:59;9.70;99.90
20284;DHT22;10301;50.832;4.080;2023-04-01T23:31:36;9.80;99.90
20284;DHT22;10301;50.832;4.080;2023-04-01T23:34:24;9.60;99.90
20284;DHT22;10301;50.832;4.080;2023-04-01T23:37:10;9.60;99.90
20284;DHT22;10301;50.832;4.080;2023-04-01T23:39:44;9.90;99.90
20284;DHT22;10301;50.832;4.080;2023-04-01T23:42:15;9.70;99.90
20284;DHT22;10301;50.832;4.080;2023-04-01T23:44:42;9.90;99.90
20284;DHT22;10301;50.832;4.080;2023-04-01T23:47:14;9.80;99.90
20284;DHT22;10301;50.832;4.080;2023-04-01T23:49:47;9.80;99.90
20284;DHT22;10301;50.832;4.080;2023-04-01T23:52:26;9.90;99.90
20284;DHT22;10301;50.832;4.080;2023-04-01T23:54:58;10.10;99.90
20284;DHT22;10301;50.832;4.080;2023-04-01T23:57:36;10.00;99.90
